createdAt,value
2023-03-15T00:00:15.974Z,9.40
2023-03-15T00:03:04.221Z,9.10
2023-03-15T00:05:32.113Z,8.70
2023-03-15T00:08:04.480Z,9.50
2023-03-15T00:10:35.275Z,9.50
2023-03-15T00:13:02.498Z,8.90
2023-03-15T00:15:52.667Z,9.40
2023-03-15T00:18:21.783Z,8.90
2023-03-15T00:20:49.483Z,9.30
2023-03-15T00:23:17.713Z,9.20
2023-03-15T00:25:49.638Z,9.40
2023-03-15T00:28:20.459Z,9.70
2023-03-15T00:30:47.870Z,9.50
2023-03-15T00:33:16.911Z,10.00
2023-03-15T00:35:53.925Z,9.70
2023-03-15T00:38:21.988Z,10.40
2023-03-15T00:40:51.991Z,7.00
2023-03-15T00:43:26.891Z,4.00
2023-03-15T00:45:56.626Z,2.70
2023-03-15T00:48:27.265Z,2.10
2023-03-15T00:51:09.890Z,1.40
2023-03-15T00:53:39.245Z,1.30
2023-03-15T00:56:13.140Z,1.10
2023-03-15T00:58:43.583Z,0.80
2023-03-15T01:01:14.040Z,1.30
2023-03-15T01:03:50.929Z,0.90
2023-03-15T01:06:22.603Z,0.90
2023-03-15T01:09:10.101Z,1.20
2023-03-15T01:11:40.463Z,1.10
2023-03-15T01:14:08.919Z,0.80
2023-03-15T01:16:39.686Z,1.20
2023-03-15T01:19:27.071Z,1.10
2023-03-15T01:22:05.524Z,1.40
2023-03-15T01:24:33.089Z,1.30
2023-03-15T01:27:20.542Z,1.20
2023-03-15T01:30:09.989Z,1.30
2023-03-15T01:32:59.377Z,1.40
2023-03-15T01:35:26.732Z,1.30
2023-03-15T01:38:14.508Z,1.30
2023-03-15T01:40:54.694Z,1.40
2023-03-15T01:43:35.363Z,1.50
2023-03-15T01:46:27.953Z,1.40
2023-03-15T01:49:18.888Z,1.40
2023-03-15T01:52:09.806Z,1.40
2023-03-15T01:55:05.766Z,1.50
2023-03-15T01:57:57.423Z,1.70
2023-03-15T02:00:45.338Z,1.30
2023-03-15T02:03:36.719Z,1.40
2023-03-15T02:06:24.853Z,1.60
2023-03-15T02:09:16.039Z,1.50
2023-03-15T02:12:05.630Z,1.70
2023-03-15T02:14:55.282Z,1.50
2023-03-15T02:17:40.157Z,1.20
2023-03-15T02:20:39.698Z,1.40
2023-03-15T02:23:15.143Z,1.40
2023-03-15T02:26:08.736Z,1.40
2023-03-15T02:28:56.386Z,1.20
2023-03-15T02:31:38.343Z,1.40
2023-03-15T02:34:08.954Z,1.30
2023-03-15T02:36:45.556Z,1.30
2023-03-15T02:39:20.896Z,1.10
2023-03-15T02:42:09.039Z,1.10
2023-03-15T02:44:50.676Z,1.20
2023-03-15T02:47:26.184Z,1.20
2023-03-15T02:50:14.272Z,1.40
2023-03-15T02:52:52.788Z,1.50
2023-03-15T02:55:40.366Z,1.90
2023-03-15T02:58:27.848Z,1.30
2023-03-15T03:01:09.135Z,1.60
2023-03-15T03:03:48.041Z,1.30
2023-03-15T03:06:35.452Z,1.60
2023-03-15T03:09:13.299Z,1.90
2023-03-15T03:11:48.507Z,1.50
2023-03-15T03:14:27.214Z,1.50
2023-03-15T03:17:14.569Z,1.50
2023-03-15T03:19:42.036Z,1.50
2023-03-15T03:22:13.411Z,1.50
2023-03-15T03:25:01.145Z,1.60
2023-03-15T03:27:48.756Z,1.40
2023-03-15T03:33:24.239Z,1.40
2023-03-15T03:36:13.312Z,2.00
2023-03-15T03:39:01.748Z,2.10
2023-03-15T03:41:50.264Z,2.00
2023-03-15T03:44:37.612Z,2.30
2023-03-15T03:47:25.239Z,2.60
2023-03-15T03:50:13.967Z,2.60
2023-03-15T03:53:01.457Z,2.90
2023-03-15T03:55:48.755Z,3.00
2023-03-15T03:58:36.820Z,2.80
2023-03-15T04:01:24.072Z,2.90
2023-03-15T04:06:57.578Z,3.10
2023-03-15T04:09:45.539Z,3.10
2023-03-15T04:12:33.584Z,3.20
2023-03-15T04:15:22.978Z,3.20
2023-03-15T04:18:10.246Z,3.00
2023-03-15T04:23:43.343Z,3.30
2023-03-15T04:26:31.132Z,3.80
2023-03-15T04:29:18.548Z,3.40
2023-03-15T04:32:21.561Z,3.60
2023-03-15T04:35:12.053Z,3.80
2023-03-15T04:38:04.153Z,3.80
2023-03-15T04:41:00.217Z,3.70
2023-03-15T04:46:49.533Z,3.40
2023-03-15T04:49:37.005Z,3.40
2023-03-15T04:52:24.916Z,3.50
2023-03-15T04:55:19.080Z,3.10
2023-03-15T04:58:06.366Z,3.40
2023-03-15T05:01:12.576Z,3.40
2023-03-15T05:03:45.727Z,3.30
2023-03-15T05:06:39.278Z,3.40
2023-03-15T05:09:24.851Z,3.70
2023-03-15T05:12:13.725Z,3.50
2023-03-15T05:15:00.248Z,3.70
2023-03-15T05:17:55.214Z,4.10
2023-03-15T05:20:41.062Z,4.10
2023-03-15T05:23:27.529Z,3.90
2023-03-15T05:26:14.858Z,4.30
2023-03-15T05:29:00.930Z,4.30
2023-03-15T05:32:00.627Z,4.90
2023-03-15T05:34:48.646Z,5.60
2023-03-15T05:37:34.141Z,5.40
2023-03-15T05:40:21.881Z,6.00
2023-03-15T05:43:15.502Z,6.40
2023-03-15T05:46:01.175Z,5.40
2023-03-15T05:48:51.572Z,6.10
2023-03-15T05:51:47.753Z,6.10
2023-03-15T05:54:37.757Z,5.80
2023-03-15T05:57:34.278Z,6.00
2023-03-15T06:00:39.727Z,5.40
2023-03-15T06:03:27.695Z,5.30
2023-03-15T06:06:10.069Z,5.40
2023-03-15T06:08:57.504Z,5.60
2023-03-15T06:11:27.182Z,5.90
2023-03-15T06:13:54.253Z,6.00
2023-03-15T06:16:39.893Z,5.00
2023-03-15T06:19:17.187Z,5.80
2023-03-15T06:21:54.720Z,5.70
2023-03-15T06:24:42.232Z,6.30
2023-03-15T06:27:30.561Z,5.20
2023-03-15T06:30:18.674Z,6.00
2023-03-15T06:32:59.630Z,5.50
2023-03-15T06:35:48.202Z,6.60
2023-03-15T06:38:35.890Z,6.00
2023-03-15T06:41:17.159Z,6.40
2023-03-15T06:44:04.696Z,6.00
2023-03-15T06:46:52.096Z,6.10
2023-03-15T06:49:39.825Z,6.60
2023-03-15T06:52:17.508Z,6.10
2023-03-15T06:54:55.034Z,6.40
2023-03-15T06:57:22.625Z,6.80
2023-03-15T07:00:00.083Z,6.70
2023-03-15T07:02:47.563Z,6.50
2023-03-15T07:05:15.693Z,6.50
2023-03-15T07:07:55.689Z,6.10
2023-03-15T07:10:33.615Z,5.90
2023-03-15T07:13:21.964Z,6.20
2023-03-15T07:16:00.182Z,6.00
2023-03-15T07:18:47.742Z,6.50
2023-03-15T07:21:18.601Z,6.00
2023-03-15T07:24:06.417Z,6.10
2023-03-15T07:26:56.655Z,8.10
2023-03-15T07:29:44.048Z,9.10
2023-03-15T07:35:19.263Z,9.40
2023-03-15T07:37:57.680Z,9.70
2023-03-15T07:40:37.908Z,10.20
2023-03-15T07:46:09.861Z,8.70
2023-03-15T07:48:57.295Z,8.70
2023-03-15T07:51:35.653Z,8.20
2023-03-15T07:54:16.712Z,8.50
2023-03-15T07:57:04.128Z,8.90
2023-03-15T07:59:52.706Z,7.90
2023-03-15T08:02:40.651Z,7.40
2023-03-15T08:05:29.273Z,7.40
2023-03-15T08:07:56.780Z,8.40
2023-03-15T08:10:45.030Z,7.30
2023-03-15T08:16:09.538Z,7.30
2023-03-15T08:18:56.922Z,7.20
2023-03-15T08:21:45.829Z,9.40
2023-03-15T08:24:24.102Z,5.80
2023-03-15T08:26:51.966Z,5.70
2023-03-15T08:29:39.360Z,5.90
2023-03-15T08:34:55.299Z,5.30
2023-03-15T08:37:32.660Z,5.60
2023-03-15T08:40:09.589Z,6.10
2023-03-15T08:42:46.481Z,5.60
2023-03-15T08:45:14.982Z,6.20
2023-03-15T08:47:45.110Z,5.10
2023-03-15T08:50:33.398Z,4.90
2023-03-15T08:53:21.015Z,4.10
2023-03-15T08:56:09.410Z,4.50
2023-03-15T08:58:46.886Z,4.40
2023-03-15T09:01:19.166Z,4.70
2023-03-15T09:04:05.883Z,5.00
2023-03-15T09:06:43.476Z,5.30
2023-03-15T09:09:10.690Z,4.50
2023-03-15T09:11:37.862Z,5.70
2023-03-15T09:14:15.383Z,4.80
2023-03-15T09:16:45.176Z,4.00
2023-03-15T09:19:33.013Z,4.40
2023-03-15T09:22:34.909Z,4.30
2023-03-15T09:25:26.960Z,3.90
2023-03-15T09:28:14.901Z,4.20
2023-03-15T09:30:52.409Z,3.50
2023-03-15T09:33:39.734Z,4.00
2023-03-15T09:36:27.791Z,3.50
2023-03-15T09:39:06.075Z,3.50
2023-03-15T09:41:44.501Z,5.00
2023-03-15T09:44:49.383Z,3.10
2023-03-15T09:47:42.134Z,3.50
2023-03-15T09:50:21.860Z,3.60
2023-03-15T09:53:23.747Z,3.80
2023-03-15T09:56:02.772Z,3.70
2023-03-15T09:58:35.982Z,3.30
2023-03-15T10:01:07.407Z,4.40
2023-03-15T10:03:42.663Z,4.60
2023-03-15T10:06:17.898Z,4.50
2023-03-15T10:08:48.737Z,4.20
2023-03-15T10:11:21.980Z,3.60
2023-03-15T10:14:01.071Z,3.30
2023-03-15T10:16:40.041Z,3.40
2023-03-15T10:19:15.081Z,3.20
2023-03-15T10:21:51.525Z,3.20
2023-03-15T10:24:24.734Z,4.40
2023-03-15T10:26:54.252Z,3.00
2023-03-15T10:29:24.316Z,3.00
2023-03-15T10:31:53.004Z,2.60
2023-03-15T10:34:20.313Z,3.50
2023-03-15T10:36:54.506Z,3.60
2023-03-15T10:39:22.064Z,3.40
2023-03-15T10:41:56.865Z,3.40
2023-03-15T10:47:23.446Z,3.40
2023-03-15T10:50:02.178Z,3.10
2023-03-15T10:52:38.901Z,3.80
2023-03-15T10:55:22.735Z,3.30
2023-03-15T10:57:57.203Z,3.50
2023-03-15T11:00:32.003Z,3.20
2023-03-15T11:03:08.208Z,3.60
2023-03-15T11:05:44.008Z,3.50
2023-03-15T11:08:15.866Z,3.40
2023-03-15T11:10:44.765Z,3.10
2023-03-15T11:13:20.757Z,4.40
2023-03-15T11:16:04.756Z,3.80
2023-03-15T11:18:58.345Z,3.30
2023-03-15T11:21:31.077Z,2.80
2023-03-15T11:24:01.231Z,3.40
2023-03-15T11:26:36.036Z,2.90
2023-03-15T11:29:09.186Z,2.70
2023-03-15T11:31:39.275Z,2.70
2023-03-15T11:34:25.470Z,3.70
2023-03-15T11:37:07.571Z,3.60
2023-03-15T11:39:58.802Z,3.40
2023-03-15T11:42:34.904Z,3.60
2023-03-15T11:45:20.257Z,4.50
2023-03-15T11:47:53.385Z,4.10
2023-03-15T11:50:21.587Z,4.00
2023-03-15T11:52:55.227Z,4.10
2023-03-15T11:55:28.678Z,4.10
2023-03-15T11:57:59.222Z,4.60
2023-03-15T12:00:55.063Z,5.10
2023-03-15T12:03:44.427Z,4.50
2023-03-15T12:06:42.148Z,4.50
2023-03-15T12:09:56.627Z,4.30
2023-03-15T12:12:46.177Z,4.10
2023-03-15T12:15:50.300Z,5.30
2023-03-15T12:18:33.461Z,4.70
2023-03-15T12:21:13.265Z,4.90
2023-03-15T12:24:00.591Z,5.00
2023-03-15T12:26:51.503Z,4.70
2023-03-15T12:29:26.038Z,5.20
2023-03-15T12:31:58.036Z,5.10
2023-03-15T12:34:46.854Z,5.10
2023-03-15T12:37:26.977Z,4.80
2023-03-15T12:40:01.572Z,4.80
2023-03-15T12:43:11.646Z,4.90
2023-03-15T12:45:58.962Z,5.10
2023-03-15T12:48:31.305Z,5.00
2023-03-15T12:51:33.832Z,5.40
2023-03-15T12:54:22.241Z,4.60
2023-03-15T12:56:54.653Z,4.90
2023-03-15T12:59:42.086Z,4.60
2023-03-15T13:02:42.582Z,4.50
2023-03-15T13:05:27.326Z,4.40
2023-03-15T13:08:22.752Z,3.90
2023-03-15T13:11:21.520Z,4.10
2023-03-15T13:14:20.084Z,4.20
2023-03-15T13:17:09.149Z,4.10
2023-03-15T13:19:44.103Z,4.60
2023-03-15T13:22:33.921Z,4.80
2023-03-15T13:25:09.984Z,4.80
2023-03-15T13:27:51.434Z,4.80
2023-03-15T13:30:33.916Z,5.00
2023-03-15T13:33:26.943Z,4.00
2023-03-15T13:36:07.174Z,3.80
2023-03-15T13:38:55.994Z,3.60
2023-03-15T13:41:33.751Z,3.40
2023-03-15T13:44:19.739Z,3.80
2023-03-15T13:47:07.422Z,4.80
2023-03-15T13:49:57.570Z,4.70
2023-03-15T13:52:25.338Z,4.50
2023-03-15T13:54:57.078Z,4.60
2023-03-15T13:57:25.325Z,4.80
2023-03-15T14:00:19.173Z,5.30
2023-03-15T14:03:02.049Z,5.20
2023-03-15T14:05:49.384Z,5.60
2023-03-15T14:08:25.869Z,5.60
2023-03-15T14:11:10.180Z,5.00
2023-03-15T14:13:54.649Z,5.60
2023-03-15T14:16:57.282Z,6.10
2023-03-15T14:19:31.671Z,6.10
2023-03-15T14:22:01.288Z,5.60
2023-03-15T14:24:34.921Z,6.30
2023-03-15T14:27:06.090Z,5.90
2023-03-15T14:29:35.739Z,5.80
2023-03-15T14:32:05.485Z,5.80
2023-03-15T14:34:39.090Z,5.30
2023-03-15T14:37:26.721Z,6.10
2023-03-15T14:40:34.913Z,5.20
2023-03-15T14:43:12.274Z,5.50
2023-03-15T14:45:51.427Z,5.20
2023-03-15T14:48:32.762Z,5.50
2023-03-15T14:51:00.364Z,5.50
2023-03-15T14:53:50.251Z,4.70
2023-03-15T14:56:28.262Z,4.80
2023-03-15T14:59:13.718Z,4.20
2023-03-15T15:04:37.681Z,3.90
2023-03-15T15:07:17.886Z,3.50
2023-03-15T15:09:58.355Z,3.40
2023-03-15T15:12:36.895Z,3.90
2023-03-15T15:15:20.266Z,4.50
2023-03-15T15:20:19.126Z,4.90
2023-03-15T15:22:47.083Z,5.50
2023-03-15T15:25:19.926Z,5.10
2023-03-15T15:27:49.733Z,4.90
2023-03-15T15:30:22.575Z,5.40
2023-03-15T15:33:10.209Z,5.30
2023-03-15T15:35:49.418Z,5.60
2023-03-15T15:38:19.105Z,5.10
2023-03-15T15:40:46.629Z,5.60
2023-03-15T15:43:14.800Z,5.50
2023-03-15T15:45:42.119Z,5.30
2023-03-15T15:48:12.458Z,5.60
2023-03-15T15:50:39.822Z,5.20
2023-03-15T15:53:07.901Z,4.80
2023-03-15T15:55:57.890Z,5.10
2023-03-15T15:58:46.112Z,5.20
2023-03-15T16:01:27.487Z,5.00
2023-03-15T16:03:54.886Z,4.70
2023-03-15T16:06:43.969Z,4.00
2023-03-15T16:09:24.079Z,3.90
2023-03-15T16:12:02.235Z,3.50
2023-03-15T16:14:32.623Z,4.20
2023-03-15T16:17:23.048Z,3.80
2023-03-15T16:20:13.885Z,3.40
2023-03-15T16:22:54.679Z,3.90
2023-03-15T16:25:27.762Z,3.50
2023-03-15T16:28:15.521Z,4.00
2023-03-15T16:31:03.089Z,3.40
2023-03-15T16:33:30.599Z,3.50
2023-03-15T16:35:57.734Z,3.70
2023-03-15T16:38:45.387Z,3.80
2023-03-15T16:41:23.066Z,3.60
2023-03-15T16:44:14.881Z,4.30
2023-03-15T16:46:51.510Z,4.30
2023-03-15T16:49:21.622Z,4.10
2023-03-15T16:52:10.794Z,4.00
2023-03-15T16:54:52.011Z,4.60
2023-03-15T16:57:22.981Z,4.90
2023-03-15T17:00:00.367Z,5.20
2023-03-15T17:02:40.715Z,5.40
2023-03-15T17:05:29.819Z,5.80
2023-03-15T17:08:21.066Z,5.70
2023-03-15T17:10:49.574Z,5.80
2023-03-15T17:13:40.810Z,6.20
2023-03-15T17:16:12.062Z,6.70
2023-03-15T17:18:49.731Z,6.40
2023-03-15T17:21:21.506Z,7.30
2023-03-15T17:24:10.869Z,7.20
2023-03-15T17:26:48.769Z,7.20
2023-03-15T17:29:16.794Z,7.80
2023-03-15T17:31:45.057Z,7.10
2023-03-15T17:34:12.698Z,7.40
2023-03-15T17:36:41.151Z,6.80
2023-03-15T17:39:10.679Z,7.40
2023-03-15T17:42:00.136Z,7.50
2023-03-15T17:44:27.820Z,7.60
2023-03-15T17:47:15.846Z,6.80
2023-03-15T17:50:03.215Z,7.70
2023-03-15T17:52:54.301Z,8.00
2023-03-15T17:55:24.231Z,7.80
2023-03-15T17:57:55.741Z,8.10
2023-03-15T18:00:33.483Z,8.80
2023-03-15T18:03:22.021Z,8.60
2023-03-15T18:06:10.191Z,11.80
2023-03-15T18:08:57.689Z,8.50
2023-03-15T18:11:37.233Z,8.60
2023-03-15T18:14:24.622Z,8.20
2023-03-15T18:16:52.045Z,8.70
2023-03-15T18:19:25.506Z,9.10
2023-03-15T18:22:04.008Z,8.30
2023-03-15T18:24:40.176Z,9.30
2023-03-15T18:27:07.460Z,8.50
2023-03-15T18:29:37.829Z,9.00
2023-03-15T18:32:25.508Z,10.00
2023-03-15T18:34:56.626Z,9.90
2023-03-15T18:37:23.977Z,9.10
2023-03-15T18:40:05.393Z,9.50
2023-03-15T18:42:43.074Z,8.70
2023-03-15T18:45:23.206Z,9.10
2023-03-15T18:47:51.030Z,8.70
2023-03-15T18:50:33.880Z,8.20
2023-03-15T18:53:10.628Z,8.40
2023-03-15T18:55:57.362Z,10.00
2023-03-15T18:58:44.788Z,12.00
2023-03-15T19:01:12.340Z,13.70
2023-03-15T19:03:59.817Z,15.80
2023-03-15T19:06:47.387Z,16.20
2023-03-15T19:09:34.783Z,19.20
2023-03-15T19:12:05.061Z,20.70
2023-03-15T19:14:42.906Z,21.20
2023-03-15T19:20:06.643Z,22.20
2023-03-15T19:22:54.438Z,22.50
2023-03-15T19:25:26.209Z,20.90
2023-03-15T19:27:57.665Z,24.50
2023-03-15T19:30:45.213Z,23.60
2023-03-15T19:33:33.062Z,22.40
2023-03-15T19:36:03.080Z,22.10
2023-03-15T19:38:51.596Z,22.80
2023-03-15T19:41:23.435Z,22.70
2023-03-15T19:44:03.414Z,20.60
2023-03-15T19:46:51.226Z,20.90
2023-03-15T19:49:21.665Z,18.40
2023-03-15T19:52:09.659Z,18.50
2023-03-15T19:54:50.172Z,17.50
2023-03-15T19:57:17.785Z,19.90
2023-03-15T19:59:45.598Z,19.90
2023-03-15T20:02:33.393Z,18.90
2023-03-15T20:05:22.637Z,18.40
2023-03-15T20:08:04.345Z,17.30
2023-03-15T20:10:40.752Z,16.40
2023-03-15T20:13:18.798Z,15.20
2023-03-15T20:16:06.636Z,15.70
2023-03-15T20:18:45.159Z,15.60
2023-03-15T20:21:15.802Z,15.90
2023-03-15T20:24:04.623Z,14.50
2023-03-15T20:26:52.882Z,15.40
2023-03-15T20:29:40.340Z,14.70
2023-03-15T20:32:28.509Z,14.40
2023-03-15T20:35:16.202Z,15.60
2023-03-15T20:38:08.348Z,17.00
2023-03-15T20:40:46.350Z,16.00
2023-03-15T20:43:33.869Z,16.70
2023-03-15T20:46:22.931Z,15.30
2023-03-15T20:48:50.226Z,15.00
2023-03-15T20:51:17.555Z,14.70
2023-03-15T20:53:54.925Z,13.40
2023-03-15T20:56:34.357Z,13.50
2023-03-15T20:59:14.547Z,15.00
2023-03-15T21:02:03.090Z,15.50
2023-03-15T21:04:33.340Z,16.40
2023-03-15T21:07:11.814Z,16.90
2023-03-15T21:09:59.235Z,16.40
2023-03-15T21:12:46.750Z,17.00
2023-03-15T21:15:34.227Z,16.80
2023-03-15T21:18:10.982Z,17.10
2023-03-15T21:21:03.692Z,15.90
2023-03-15T21:23:51.090Z,15.30
2023-03-15T21:26:32.068Z,14.60
2023-03-15T21:29:01.504Z,14.90
2023-03-15T21:31:31.978Z,14.70
2023-03-15T21:34:08.262Z,13.70
2023-03-15T21:36:55.805Z,14.50
2023-03-15T21:39:43.342Z,14.80
2023-03-15T21:42:31.056Z,14.70
2023-03-15T21:45:14.037Z,15.20
2023-03-15T21:48:01.692Z,14.50
2023-03-15T21:50:50.179Z,15.50
2023-03-15T21:53:38.735Z,14.50
2023-03-15T21:56:17.015Z,14.60
2023-03-15T21:58:46.819Z,14.30
2023-03-15T22:01:15.080Z,13.90
2023-03-15T22:03:44.473Z,13.90
2023-03-15T22:06:32.510Z,14.00
2023-03-15T22:09:19.904Z,13.70
2023-03-15T22:12:07.960Z,13.40
2023-03-15T22:14:38.473Z,13.70
2023-03-15T22:17:28.273Z,14.30
2023-03-15T22:20:18.908Z,13.60
2023-03-15T22:22:50.081Z,13.80
2023-03-15T22:25:38.877Z,14.40
2023-03-15T22:28:26.659Z,14.10
2023-03-15T22:30:57.484Z,14.60
2023-03-15T22:33:37.672Z,14.70
2023-03-15T22:36:23.495Z,14.60
2023-03-15T22:39:05.140Z,14.60
2023-03-15T22:41:45.372Z,14.20
2023-03-15T22:44:25.491Z,16.00
2023-03-15T22:47:04.096Z,15.30
2023-03-15T22:49:41.697Z,14.20
2023-03-15T22:52:29.123Z,15.70
2023-03-15T22:55:08.225Z,15.40
2023-03-15T22:57:55.480Z,15.20
2023-03-15T23:00:45.115Z,14.80
2023-03-15T23:03:32.658Z,15.40
2023-03-15T23:06:20.620Z,14.80
2023-03-15T23:09:07.994Z,16.40
2023-03-15T23:11:46.646Z,16.60
2023-03-15T23:14:34.055Z,15.30
2023-03-15T23:17:12.838Z,16.50
2023-03-15T23:20:00.384Z,16.20
2023-03-15T23:22:49.058Z,17.00
2023-03-15T23:25:40.397Z,17.00
2023-03-15T23:28:27.860Z,16.90
2023-03-15T23:31:15.409Z,16.50
2023-03-15T23:33:56.820Z,17.30
2023-03-15T23:36:45.389Z,16.60
2023-03-15T23:39:32.902Z,16.80
2023-03-15T23:42:20.498Z,17.10
2023-03-15T23:45:10.895Z,16.80
2023-03-15T23:47:58.922Z,16.20
2023-03-15T23:50:27.176Z,16.70
2023-03-15T23:53:05.294Z,16.40
2023-03-15T23:55:54.259Z,17.30
2023-03-15T23:58:41.859Z,16.50
